createdAt,value
2023-05-01T00:00:47.433Z,13.1
2023-05-01T00:20:49.993Z,13
2023-05-01T00:40:47.104Z,12.9
2023-05-01T01:00:47.061Z,12.8
2023-05-01T01:20:48.627Z,12.7
2023-05-01T01:40:46.406Z,12.8
2023-05-01T02:00:46.204Z,12.6
2023-05-01T02:20:48.429Z,12.6
2023-05-01T02:40:53.198Z,12.4
2023-05-01T03:00:49.272Z,12.3
2023-05-01T03:20:47.316Z,12.2
2023-05-01T03:40:48.100Z,12
2023-05-01T04:00:47.080Z,12.1
2023-05-01T04:20:46.208Z,12
2023-05-01T04:41:18.426Z,12
2023-05-01T05:01:07.925Z,11.9
2023-05-01T05:21:17.902Z,12
2023-05-01T05:41:06.542Z,12
2023-05-01T06:01:09.830Z,12.1
2023-05-01T06:21:14.951Z,12.1
2023-05-01T06:41:08.950Z,12.1
2023-05-01T07:01:17.487Z,12.1
2023-05-01T07:21:06.915Z,12
2023-05-01T07:41:06.856Z,12
2023-05-01T08:01:12.576Z,12.2
2023-05-01T08:21:07.753Z,12.2
2023-05-01T08:41:09.412Z,12.5
2023-05-01T09:01:17.937Z,12.7
2023-05-01T09:21:07.283Z,12.7
2023-05-01T09:41:07.889Z,12.8
2023-05-01T10:01:17.100Z,13.4
2023-05-01T10:21:12.242Z,13.5
2023-05-01T10:41:10.281Z,13.5
2023-05-01T11:01:08.799Z,13.4
2023-05-01T11:21:09.312Z,13.4
2023-05-01T11:41:09.246Z,13.3
2023-05-01T12:01:05.821Z,13.6
2023-05-01T12:21:16.381Z,13.5
2023-05-01T12:41:09.879Z,13.1
2023-05-01T13:01:11.587Z,13.1
2023-05-01T13:21:11.369Z,13.5
2023-05-01T13:41:13.989Z,13.9
2023-05-01T14:01:16.603Z,14.1
2023-05-01T14:21:15.767Z,14.3
2023-05-01T14:41:12.830Z,14.6
2023-05-01T15:01:16.269Z,14.7
2023-05-01T15:21:07.622Z,14.7
2023-05-01T15:41:06.837Z,14.5
2023-05-01T16:01:11.652Z,14.1
2023-05-01T16:21:09.835Z,12.6
2023-05-01T16:41:12.544Z,12.4
2023-05-01T17:01:08.698Z,12.3
2023-05-01T17:21:16.705Z,12.3
2023-05-01T17:41:07.674Z,12.2
2023-05-01T18:01:19.070Z,12.2
2023-05-01T18:21:06.956Z,12.2
2023-05-01T18:40:47.832Z,12.2
2023-05-01T19:00:46.013Z,12.1
2023-05-01T19:20:46.332Z,11.9
2023-05-01T19:40:47.594Z,11.6
2023-05-01T20:00:46.874Z,11.4
2023-05-01T20:20:47.060Z,11.3
2023-05-01T20:40:46.512Z,11.1
2023-05-01T21:00:47.069Z,11.1
2023-05-01T21:20:47.190Z,11.1
2023-05-01T21:40:47.005Z,11.1
2023-05-01T22:01:00.421Z,10.8
2023-05-01T22:20:48.421Z,10.7
2023-05-01T22:40:46.649Z,10.7
2023-05-01T23:00:46.487Z,10.7
2023-05-01T23:20:50.178Z,10.5
2023-05-01T23:40:50.299Z,10.8
